sensor_id;sensor_type;location;lat;lon;timestamp;P1;durP1;ratioP1;P2;durP2;ratioP2
13374;SDS011;6756;51.354;15.754;2023-02-17T00:00:45;34.77;;;19.43;;
13374;SDS011;6756;51.354;15.754;2023-02-17T00:04:46;33.73;;;20.00;;
13374;SDS011;6756;51.354;15.754;2023-02-17T00:08:47;29.03;;;18.70;;
13374;SDS011;6756;51.354;15.754;2023-02-17T00:12:48;29.87;;;18.33;;
13374;SDS011;6756;51.354;15.754;2023-02-17T00:16:49;29.53;;;17.53;;
13374;SDS011;6756;51.354;15.754;2023-02-17T00:20:50;33.17;;;18.97;;
13374;SDS011;6756;51.354;15.754;2023-02-17T00:24:51;26.57;;;17.27;;
13374;SDS011;6756;51.354;15.754;2023-02-17T00:28:52;30.07;;;18.13;;
13374;SDS011;6756;51.354;15.754;2023-02-17T00:32:52;29.97;;;18.00;;
13374;SDS011;6756;51.354;15.754;2023-02-17T00:36:53;29.07;;;18.33;;
13374;SDS011;6756;51.354;15.754;2023-02-17T00:40:55;34.27;;;18.80;;
13374;SDS011;6756;51.354;15.754;2023-02-17T00:44:55;29.40;;;17.50;;
13374;SDS011;6756;51.354;15.754;2023-02-17T00:48:56;25.67;;;17.37;;
13374;SDS011;6756;51.354;15.754;2023-02-17T00:52:57;30.93;;;18.40;;
13374;SDS011;6756;51.354;15.754;2023-02-17T00:56:58;29.93;;;18.03;;
13374;SDS011;6756;51.354;15.754;2023-02-17T01:00:59;30.33;;;17.57;;
13374;SDS011;6756;51.354;15.754;2023-02-17T01:05:00;25.87;;;16.87;;
13374;SDS011;6756;51.354;15.754;2023-02-17T01:09:02;31.53;;;16.90;;
13374;SDS011;6756;51.354;15.754;2023-02-17T01:13:05;25.40;;;16.90;;
13374;SDS011;6756;51.354;15.754;2023-02-17T01:17:06;25.73;;;16.63;;
13374;SDS011;6756;51.354;15.754;2023-02-17T01:21:14;26.83;;;16.37;;
13374;SDS011;6756;51.354;15.754;2023-02-17T01:25:37;29.70;;;15.47;;
13374;SDS011;6756;51.354;15.754;2023-02-17T01:29:39;26.83;;;16.23;;
13374;SDS011;6756;51.354;15.754;2023-02-17T01:33:40;23.00;;;15.93;;
13374;SDS011;6756;51.354;15.754;2023-02-17T01:37:41;28.73;;;16.27;;
13374;SDS011;6756;51.354;15.754;2023-02-17T01:41:43;25.83;;;16.53;;
13374;SDS011;6756;51.354;15.754;2023-02-17T01:45:48;26.43;;;15.67;;
13374;SDS011;6756;51.354;15.754;2023-02-17T01:49:54;27.10;;;15.77;;
13374;SDS011;6756;51.354;15.754;2023-02-17T01:53:59;25.77;;;15.47;;
13374;SDS011;6756;51.354;15.754;2023-02-17T01:58:21;24.10;;;15.20;;
13374;SDS011;6756;51.354;15.754;2023-02-17T02:02:23;24.10;;;15.40;;
13374;SDS011;6756;51.354;15.754;2023-02-17T02:06:25;23.07;;;15.43;;
13374;SDS011;6756;51.354;15.754;2023-02-17T02:10:27;25.20;;;15.40;;
13374;SDS011;6756;51.354;15.754;2023-02-17T02:14:28;24.40;;;15.23;;
13374;SDS011;6756;51.354;15.754;2023-02-17T02:39:53;20.87;;;14.03;;
13374;SDS011;6756;51.354;15.754;2023-02-17T02:43:56;24.13;;;14.40;;
13374;SDS011;6756;51.354;15.754;2023-02-17T02:47:57;24.17;;;14.77;;
13374;SDS011;6756;51.354;15.754;2023-02-17T02:56:13;23.43;;;16.20;;
13374;SDS011;6756;51.354;15.754;2023-02-17T03:00:24;22.30;;;14.43;;
13374;SDS011;6756;51.354;15.754;2023-02-17T03:04:33;25.03;;;15.73;;
13374;SDS011;6756;51.354;15.754;2023-02-17T03:08:40;24.00;;;14.93;;
13374;SDS011;6756;51.354;15.754;2023-02-17T03:12:48;27.20;;;15.67;;
13374;SDS011;6756;51.354;15.754;2023-02-17T03:16:49;24.47;;;15.53;;
13374;SDS011;6756;51.354;15.754;2023-02-17T03:20:55;25.77;;;16.37;;
13374;SDS011;6756;51.354;15.754;2023-02-17T03:25:01;23.70;;;15.43;;
13374;SDS011;6756;51.354;15.754;2023-02-17T03:29:03;27.00;;;16.37;;
13374;SDS011;6756;51.354;15.754;2023-02-17T03:33:04;23.93;;;15.37;;
13374;SDS011;6756;51.354;15.754;2023-02-17T03:37:04;23.90;;;14.20;;
13374;SDS011;6756;51.354;15.754;2023-02-17T03:41:05;24.20;;;15.17;;
13374;SDS011;6756;51.354;15.754;2023-02-17T03:45:06;25.27;;;15.30;;
13374;SDS011;6756;51.354;15.754;2023-02-17T03:49:07;25.60;;;15.67;;
13374;SDS011;6756;51.354;15.754;2023-02-17T03:53:09;22.67;;;15.13;;
13374;SDS011;6756;51.354;15.754;2023-02-17T03:57:10;21.17;;;15.60;;
13374;SDS011;6756;51.354;15.754;2023-02-17T04:01:11;23.57;;;15.47;;
13374;SDS011;6756;51.354;15.754;2023-02-17T04:05:13;24.40;;;15.17;;
13374;SDS011;6756;51.354;15.754;2023-02-17T04:09:13;25.77;;;15.30;;
13374;SDS011;6756;51.354;15.754;2023-02-17T04:13:14;25.73;;;15.30;;
13374;SDS011;6756;51.354;15.754;2023-02-17T04:17:15;26.30;;;16.20;;
13374;SDS011;6756;51.354;15.754;2023-02-17T04:21:16;23.17;;;15.10;;
13374;SDS011;6756;51.354;15.754;2023-02-17T04:25:17;25.27;;;14.77;;
13374;SDS011;6756;51.354;15.754;2023-02-17T04:29:18;30.30;;;16.47;;
13374;SDS011;6756;51.354;15.754;2023-02-17T04:33:18;24.10;;;15.17;;
13374;SDS011;6756;51.354;15.754;2023-02-17T04:37:19;22.13;;;15.00;;
13374;SDS011;6756;51.354;15.754;2023-02-17T04:41:20;26.00;;;15.77;;
13374;SDS011;6756;51.354;15.754;2023-02-17T04:45:21;29.20;;;15.87;;
13374;SDS011;6756;51.354;15.754;2023-02-17T04:49:22;26.20;;;16.17;;
13374;SDS011;6756;51.354;15.754;2023-02-17T04:53:22;25.83;;;16.00;;
13374;SDS011;6756;51.354;15.754;2023-02-17T04:57:23;25.83;;;16.07;;
13374;SDS011;6756;51.354;15.754;2023-02-17T05:01:24;23.43;;;14.63;;
13374;SDS011;6756;51.354;15.754;2023-02-17T05:05:25;23.10;;;14.87;;
13374;SDS011;6756;51.354;15.754;2023-02-17T05:09:26;21.80;;;13.73;;
13374;SDS011;6756;51.354;15.754;2023-02-17T05:13:27;22.73;;;14.33;;
13374;SDS011;6756;51.354;15.754;2023-02-17T05:17:28;18.87;;;13.43;;
13374;SDS011;6756;51.354;15.754;2023-02-17T05:21:28;23.50;;;15.03;;
13374;SDS011;6756;51.354;15.754;2023-02-17T05:25:29;21.90;;;13.80;;
13374;SDS011;6756;51.354;15.754;2023-02-17T05:29:31;23.97;;;14.80;;
13374;SDS011;6756;51.354;15.754;2023-02-17T05:33:32;24.20;;;13.73;;
13374;SDS011;6756;51.354;15.754;2023-02-17T05:37:33;24.63;;;15.03;;
13374;SDS011;6756;51.354;15.754;2023-02-17T05:41:33;23.73;;;15.20;;
13374;SDS011;6756;51.354;15.754;2023-02-17T05:45:34;26.90;;;15.10;;
13374;SDS011;6756;51.354;15.754;2023-02-17T05:49:35;22.97;;;13.20;;
13374;SDS011;6756;51.354;15.754;2023-02-17T05:53:36;22.07;;;15.40;;
13374;SDS011;6756;51.354;15.754;2023-02-17T05:57:37;26.80;;;14.33;;
13374;SDS011;6756;51.354;15.754;2023-02-17T06:01:38;21.07;;;13.17;;
13374;SDS011;6756;51.354;15.754;2023-02-17T06:05:39;24.27;;;13.57;;
13374;SDS011;6756;51.354;15.754;2023-02-17T06:09:40;22.83;;;13.77;;
13374;SDS011;6756;51.354;15.754;2023-02-17T06:13:40;25.07;;;15.23;;
13374;SDS011;6756;51.354;15.754;2023-02-17T06:17:41;24.73;;;14.63;;
13374;SDS011;6756;51.354;15.754;2023-02-17T06:21:42;20.57;;;13.47;;
13374;SDS011;6756;51.354;15.754;2023-02-17T06:25:43;23.37;;;15.00;;
13374;SDS011;6756;51.354;15.754;2023-02-17T06:29:44;21.97;;;14.77;;
13374;SDS011;6756;51.354;15.754;2023-02-17T06:33:45;22.97;;;13.83;;
13374;SDS011;6756;51.354;15.754;2023-02-17T06:37:46;26.07;;;15.37;;
13374;SDS011;6756;51.354;15.754;2023-02-17T06:41:47;22.60;;;14.07;;
13374;SDS011;6756;51.354;15.754;2023-02-17T06:45:48;25.73;;;14.23;;
13374;SDS011;6756;51.354;15.754;2023-02-17T06:49:49;19.67;;;14.00;;
13374;SDS011;6756;51.354;15.754;2023-02-17T06:53:50;22.40;;;14.13;;
13374;SDS011;6756;51.354;15.754;2023-02-17T06:57:51;22.27;;;14.23;;
13374;SDS011;6756;51.354;15.754;2023-02-17T07:01:52;26.90;;;15.63;;
13374;SDS011;6756;51.354;15.754;2023-02-17T07:05:56;22.80;;;14.73;;
13374;SDS011;6756;51.354;15.754;2023-02-17T07:09:57;26.00;;;15.33;;
13374;SDS011;6756;51.354;15.754;2023-02-17T07:13:59;24.53;;;14.73;;
13374;SDS011;6756;51.354;15.754;2023-02-17T07:18:00;29.73;;;16.33;;
13374;SDS011;6756;51.354;15.754;2023-02-17T07:22:01;24.47;;;14.40;;
13374;SDS011;6756;51.354;15.754;2023-02-17T07:26:06;24.23;;;14.93;;
13374;SDS011;6756;51.354;15.754;2023-02-17T07:30:09;23.47;;;14.67;;
13374;SDS011;6756;51.354;15.754;2023-02-17T07:34:10;27.63;;;15.77;;
13374;SDS011;6756;51.354;15.754;2023-02-17T07:38:11;24.87;;;16.00;;
13374;SDS011;6756;51.354;15.754;2023-02-17T07:42:12;26.23;;;16.00;;
13374;SDS011;6756;51.354;15.754;2023-02-17T07:46:13;24.97;;;16.10;;
13374;SDS011;6756;51.354;15.754;2023-02-17T07:50:14;27.37;;;16.10;;
13374;SDS011;6756;51.354;15.754;2023-02-17T07:54:15;24.13;;;14.73;;
13374;SDS011;6756;51.354;15.754;2023-02-17T07:58:16;23.63;;;14.67;;
13374;SDS011;6756;51.354;15.754;2023-02-17T08:02:17;27.10;;;16.10;;
13374;SDS011;6756;51.354;15.754;2023-02-17T08:06:19;24.60;;;15.13;;
13374;SDS011;6756;51.354;15.754;2023-02-17T08:10:21;25.03;;;15.63;;
13374;SDS011;6756;51.354;15.754;2023-02-17T08:14:41;21.80;;;13.47;;
13374;SDS011;6756;51.354;15.754;2023-02-17T08:18:41;22.60;;;14.27;;
13374;SDS011;6756;51.354;15.754;2023-02-17T08:22:42;22.57;;;13.80;;
13374;SDS011;6756;51.354;15.754;2023-02-17T08:26:43;22.97;;;14.33;;
13374;SDS011;6756;51.354;15.754;2023-02-17T08:30:44;18.63;;;12.97;;
13374;SDS011;6756;51.354;15.754;2023-02-17T08:34:45;23.53;;;14.40;;
13374;SDS011;6756;51.354;15.754;2023-02-17T08:38:45;20.97;;;14.20;;
13374;SDS011;6756;51.354;15.754;2023-02-17T08:42:49;18.83;;;12.80;;
13374;SDS011;6756;51.354;15.754;2023-02-17T08:46:50;21.53;;;14.00;;
13374;SDS011;6756;51.354;15.754;2023-02-17T08:50:52;19.30;;;13.40;;
13374;SDS011;6756;51.354;15.754;2023-02-17T08:54:53;18.80;;;13.00;;
13374;SDS011;6756;51.354;15.754;2023-02-17T08:58:54;18.63;;;12.87;;
13374;SDS011;6756;51.354;15.754;2023-02-17T09:02:55;19.37;;;12.63;;
13374;SDS011;6756;51.354;15.754;2023-02-17T09:06:56;18.53;;;11.60;;
13374;SDS011;6756;51.354;15.754;2023-02-17T09:10:57;17.80;;;11.93;;
13374;SDS011;6756;51.354;15.754;2023-02-17T09:14:58;20.07;;;11.93;;
13374;SDS011;6756;51.354;15.754;2023-02-17T09:18:59;16.93;;;11.23;;
13374;SDS011;6756;51.354;15.754;2023-02-17T09:23:00;18.30;;;11.50;;
13374;SDS011;6756;51.354;15.754;2023-02-17T09:27:01;18.00;;;11.47;;
13374;SDS011;6756;51.354;15.754;2023-02-17T09:31:12;19.50;;;10.53;;
13374;SDS011;6756;51.354;15.754;2023-02-17T09:35:20;17.77;;;11.33;;
13374;SDS011;6756;51.354;15.754;2023-02-17T09:39:21;17.57;;;11.57;;
13374;SDS011;6756;51.354;15.754;2023-02-17T09:43:25;16.53;;;10.87;;
13374;SDS011;6756;51.354;15.754;2023-02-17T09:56:19;15.00;;;11.00;;
13374;SDS011;6756;51.354;15.754;2023-02-17T10:00:25;18.10;;;11.43;;
13374;SDS011;6756;51.354;15.754;2023-02-17T10:04:41;16.77;;;11.13;;
13374;SDS011;6756;51.354;15.754;2023-02-17T10:13:04;17.40;;;11.27;;
13374;SDS011;6756;51.354;15.754;2023-02-17T10:21:30;18.53;;;11.47;;
13374;SDS011;6756;51.354;15.754;2023-02-17T10:25:43;17.00;;;10.80;;
13374;SDS011;6756;51.354;15.754;2023-02-17T10:34:03;16.27;;;10.77;;
13374;SDS011;6756;51.354;15.754;2023-02-17T10:38:15;17.83;;;11.53;;
13374;SDS011;6756;51.354;15.754;2023-02-17T10:42:35;17.57;;;10.83;;
13374;SDS011;6756;51.354;15.754;2023-02-17T10:46:39;16.87;;;10.50;;
13374;SDS011;6756;51.354;15.754;2023-02-17T10:50:42;17.27;;;11.40;;
13374;SDS011;6756;51.354;15.754;2023-02-17T11:03:39;18.20;;;10.27;;
13374;SDS011;6756;51.354;15.754;2023-02-17T11:07:41;14.97;;;10.20;;
13374;SDS011;6756;51.354;15.754;2023-02-17T11:11:48;14.27;;;9.37;;
13374;SDS011;6756;51.354;15.754;2023-02-17T11:16:24;12.77;;;8.40;;
13374;SDS011;6756;51.354;15.754;2023-02-17T11:20:29;11.97;;;9.07;;
13374;SDS011;6756;51.354;15.754;2023-02-17T11:24:33;14.47;;;9.30;;
13374;SDS011;6756;51.354;15.754;2023-02-17T11:28:34;11.97;;;8.63;;
13374;SDS011;6756;51.354;15.754;2023-02-17T11:32:35;13.73;;;8.60;;
13374;SDS011;6756;51.354;15.754;2023-02-17T11:36:39;13.97;;;9.63;;
13374;SDS011;6756;51.354;15.754;2023-02-17T11:45:15;11.97;;;8.43;;
13374;SDS011;6756;51.354;15.754;2023-02-17T11:53:51;10.63;;;7.47;;
13374;SDS011;6756;51.354;15.754;2023-02-17T12:02:53;11.03;;;8.37;;
13374;SDS011;6756;51.354;15.754;2023-02-17T12:15:02;10.07;;;7.10;;
13374;SDS011;6756;51.354;15.754;2023-02-17T12:23:59;9.87;;;7.37;;
13374;SDS011;6756;51.354;15.754;2023-02-17T12:32:34;8.30;;;6.53;;
13374;SDS011;6756;51.354;15.754;2023-02-17T12:36:47;11.70;;;7.17;;
13374;SDS011;6756;51.354;15.754;2023-02-17T12:40:51;7.30;;;6.13;;
13374;SDS011;6756;51.354;15.754;2023-02-17T12:45:05;10.00;;;7.07;;
13374;SDS011;6756;51.354;15.754;2023-02-17T12:49:16;7.50;;;5.97;;
13374;SDS011;6756;51.354;15.754;2023-02-17T12:58:04;8.90;;;6.90;;
13374;SDS011;6756;51.354;15.754;2023-02-17T13:02:17;7.07;;;5.90;;
13374;SDS011;6756;51.354;15.754;2023-02-17T13:10:37;8.37;;;6.43;;
13374;SDS011;6756;51.354;15.754;2023-02-17T13:14:43;9.30;;;6.03;;
13374;SDS011;6756;51.354;15.754;2023-02-17T13:18:47;7.30;;;5.73;;
13374;SDS011;6756;51.354;15.754;2023-02-17T13:22:49;10.10;;;5.63;;
13374;SDS011;6756;51.354;15.754;2023-02-17T13:27:11;8.00;;;6.30;;
13374;SDS011;6756;51.354;15.754;2023-02-17T13:31:23;7.27;;;5.90;;
13374;SDS011;6756;51.354;15.754;2023-02-17T13:43:29;9.27;;;6.80;;
13374;SDS011;6756;51.354;15.754;2023-02-17T13:47:39;7.20;;;6.03;;
13374;SDS011;6756;51.354;15.754;2023-02-17T13:51:41;7.20;;;5.93;;
13374;SDS011;6756;51.354;15.754;2023-02-17T13:55:43;6.53;;;5.53;;
13374;SDS011;6756;51.354;15.754;2023-02-17T13:59:43;10.00;;;5.63;;
13374;SDS011;6756;51.354;15.754;2023-02-17T14:03:45;7.33;;;5.47;;
13374;SDS011;6756;51.354;15.754;2023-02-17T14:07:52;6.43;;;5.27;;
13374;SDS011;6756;51.354;15.754;2023-02-17T14:12:05;6.63;;;5.53;;
13374;SDS011;6756;51.354;15.754;2023-02-17T14:16:32;6.53;;;4.93;;
13374;SDS011;6756;51.354;15.754;2023-02-17T14:20:35;8.17;;;5.33;;
13374;SDS011;6756;51.354;15.754;2023-02-17T14:24:36;5.87;;;4.93;;
13374;SDS011;6756;51.354;15.754;2023-02-17T14:28:38;7.13;;;4.80;;
13374;SDS011;6756;51.354;15.754;2023-02-17T14:32:38;5.70;;;4.83;;
13374;SDS011;6756;51.354;15.754;2023-02-17T14:36:39;6.70;;;5.30;;
13374;SDS011;6756;51.354;15.754;2023-02-17T14:40:40;7.70;;;5.07;;
13374;SDS011;6756;51.354;15.754;2023-02-17T14:44:41;7.80;;;5.37;;
13374;SDS011;6756;51.354;15.754;2023-02-17T14:48:42;6.87;;;5.40;;
13374;SDS011;6756;51.354;15.754;2023-02-17T14:52:44;6.30;;;5.23;;
13374;SDS011;6756;51.354;15.754;2023-02-17T14:56:56;7.03;;;5.47;;
13374;SDS011;6756;51.354;15.754;2023-02-17T15:01:04;7.57;;;5.50;;
13374;SDS011;6756;51.354;15.754;2023-02-17T15:05:05;6.87;;;4.83;;
13374;SDS011;6756;51.354;15.754;2023-02-17T15:09:10;6.13;;;4.77;;
13374;SDS011;6756;51.354;15.754;2023-02-17T15:13:14;6.67;;;5.70;;
13374;SDS011;6756;51.354;15.754;2023-02-17T15:17:17;6.77;;;5.80;;
13374;SDS011;6756;51.354;15.754;2023-02-17T15:21:25;6.80;;;5.50;;
13374;SDS011;6756;51.354;15.754;2023-02-17T15:25:28;7.97;;;5.47;;
13374;SDS011;6756;51.354;15.754;2023-02-17T15:29:32;5.77;;;5.17;;
13374;SDS011;6756;51.354;15.754;2023-02-17T15:33:33;6.50;;;5.87;;
13374;SDS011;6756;51.354;15.754;2023-02-17T15:37:34;8.23;;;5.57;;
13374;SDS011;6756;51.354;15.754;2023-02-17T15:41:35;6.97;;;5.73;;
13374;SDS011;6756;51.354;15.754;2023-02-17T15:45:36;7.37;;;6.13;;
13374;SDS011;6756;51.354;15.754;2023-02-17T15:49:37;10.40;;;6.87;;
13374;SDS011;6756;51.354;15.754;2023-02-17T15:53:38;8.83;;;6.30;;
13374;SDS011;6756;51.354;15.754;2023-02-17T15:57:39;8.17;;;6.97;;
13374;SDS011;6756;51.354;15.754;2023-02-17T16:01:45;7.90;;;7.03;;
13374;SDS011;6756;51.354;15.754;2023-02-17T16:05:46;9.43;;;7.10;;
13374;SDS011;6756;51.354;15.754;2023-02-17T16:09:47;10.53;;;8.03;;
13374;SDS011;6756;51.354;15.754;2023-02-17T16:13:47;9.13;;;6.50;;
13374;SDS011;6756;51.354;15.754;2023-02-17T16:17:49;9.93;;;6.93;;
13374;SDS011;6756;51.354;15.754;2023-02-17T16:21:51;8.03;;;6.90;;
13374;SDS011;6756;51.354;15.754;2023-02-17T16:25:51;8.17;;;6.57;;
13374;SDS011;6756;51.354;15.754;2023-02-17T16:29:52;8.07;;;7.27;;
13374;SDS011;6756;51.354;15.754;2023-02-17T16:33:53;8.97;;;7.50;;
13374;SDS011;6756;51.354;15.754;2023-02-17T16:38:20;9.40;;;6.70;;
13374;SDS011;6756;51.354;15.754;2023-02-17T16:42:21;8.10;;;6.90;;
13374;SDS011;6756;51.354;15.754;2023-02-17T16:46:31;6.93;;;6.23;;
13374;SDS011;6756;51.354;15.754;2023-02-17T16:50:35;7.80;;;5.83;;
13374;SDS011;6756;51.354;15.754;2023-02-17T16:54:36;7.13;;;6.40;;
13374;SDS011;6756;51.354;15.754;2023-02-17T16:58:37;7.03;;;6.00;;
13374;SDS011;6756;51.354;15.754;2023-02-17T17:02:39;8.70;;;5.83;;
13374;SDS011;6756;51.354;15.754;2023-02-17T17:06:45;8.03;;;5.37;;
13374;SDS011;6756;51.354;15.754;2023-02-17T17:10:50;6.87;;;5.27;;
13374;SDS011;6756;51.354;15.754;2023-02-17T17:14:50;8.20;;;5.17;;
13374;SDS011;6756;51.354;15.754;2023-02-17T17:18:51;6.63;;;4.53;;
13374;SDS011;6756;51.354;15.754;2023-02-17T17:22:52;6.60;;;4.37;;
13374;SDS011;6756;51.354;15.754;2023-02-17T17:26:53;5.03;;;3.90;;
13374;SDS011;6756;51.354;15.754;2023-02-17T17:30:54;4.97;;;3.67;;
13374;SDS011;6756;51.354;15.754;2023-02-17T17:34:55;4.80;;;3.00;;
13374;SDS011;6756;51.354;15.754;2023-02-17T17:38:57;5.03;;;3.03;;
13374;SDS011;6756;51.354;15.754;2023-02-17T17:42:59;4.63;;;3.23;;
13374;SDS011;6756;51.354;15.754;2023-02-17T17:47:00;3.33;;;2.57;;
13374;SDS011;6756;51.354;15.754;2023-02-17T17:51:00;3.67;;;2.50;;
13374;SDS011;6756;51.354;15.754;2023-02-17T17:55:01;2.40;;;2.07;;
13374;SDS011;6756;51.354;15.754;2023-02-17T17:59:03;3.43;;;2.20;;
13374;SDS011;6756;51.354;15.754;2023-02-17T18:03:05;3.03;;;2.33;;
13374;SDS011;6756;51.354;15.754;2023-02-17T18:07:06;2.03;;;1.63;;
13374;SDS011;6756;51.354;15.754;2023-02-17T18:11:07;2.40;;;1.63;;
13374;SDS011;6756;51.354;15.754;2023-02-17T18:15:10;1.90;;;1.70;;
13374;SDS011;6756;51.354;15.754;2023-02-17T18:19:11;2.93;;;1.67;;
13374;SDS011;6756;51.354;15.754;2023-02-17T18:23:13;1.90;;;1.60;;
13374;SDS011;6756;51.354;15.754;2023-02-17T18:27:14;2.10;;;1.87;;
13374;SDS011;6756;51.354;15.754;2023-02-17T18:31:15;2.00;;;1.53;;
13374;SDS011;6756;51.354;15.754;2023-02-17T18:35:17;1.77;;;1.63;;
13374;SDS011;6756;51.354;15.754;2023-02-17T18:39:18;1.97;;;1.50;;
13374;SDS011;6756;51.354;15.754;2023-02-17T18:43:19;1.70;;;1.50;;
13374;SDS011;6756;51.354;15.754;2023-02-17T18:47:20;1.90;;;1.60;;
13374;SDS011;6756;51.354;15.754;2023-02-17T18:51:21;2.10;;;1.70;;
13374;SDS011;6756;51.354;15.754;2023-02-17T18:55:36;2.33;;;1.70;;
13374;SDS011;6756;51.354;15.754;2023-02-17T18:59:37;2.10;;;1.77;;
13374;SDS011;6756;51.354;15.754;2023-02-17T19:03:38;3.27;;;2.00;;
13374;SDS011;6756;51.354;15.754;2023-02-17T19:07:39;2.47;;;2.27;;
13374;SDS011;6756;51.354;15.754;2023-02-17T19:11:40;3.10;;;2.10;;
13374;SDS011;6756;51.354;15.754;2023-02-17T19:15:41;2.40;;;2.13;;
13374;SDS011;6756;51.354;15.754;2023-02-17T19:19:42;3.63;;;1.97;;
13374;SDS011;6756;51.354;15.754;2023-02-17T19:23:42;2.57;;;2.37;;
13374;SDS011;6756;51.354;15.754;2023-02-17T19:27:43;2.57;;;2.30;;
13374;SDS011;6756;51.354;15.754;2023-02-17T19:31:44;2.57;;;1.60;;
13374;SDS011;6756;51.354;15.754;2023-02-17T19:35:45;3.13;;;2.27;;
13374;SDS011;6756;51.354;15.754;2023-02-17T19:39:46;3.00;;;2.47;;
13374;SDS011;6756;51.354;15.754;2023-02-17T19:43:47;3.73;;;2.97;;
13374;SDS011;6756;51.354;15.754;2023-02-17T19:47:48;4.70;;;3.87;;
13374;SDS011;6756;51.354;15.754;2023-02-17T19:51:49;3.67;;;3.37;;
13374;SDS011;6756;51.354;15.754;2023-02-17T19:55:50;3.80;;;3.50;;
13374;SDS011;6756;51.354;15.754;2023-02-17T19:59:51;5.07;;;3.67;;
13374;SDS011;6756;51.354;15.754;2023-02-17T20:03:52;5.00;;;4.27;;
13374;SDS011;6756;51.354;15.754;2023-02-17T20:07:54;3.83;;;3.47;;
13374;SDS011;6756;51.354;15.754;2023-02-17T20:11:56;4.07;;;3.67;;
13374;SDS011;6756;51.354;15.754;2023-02-17T20:15:57;3.17;;;2.87;;
13374;SDS011;6756;51.354;15.754;2023-02-17T20:19:59;3.70;;;2.93;;
13374;SDS011;6756;51.354;15.754;2023-02-17T20:24:00;4.87;;;3.23;;
13374;SDS011;6756;51.354;15.754;2023-02-17T20:28:01;3.77;;;3.07;;
13374;SDS011;6756;51.354;15.754;2023-02-17T20:32:02;3.23;;;2.60;;
13374;SDS011;6756;51.354;15.754;2023-02-17T20:36:07;2.30;;;2.03;;
13374;SDS011;6756;51.354;15.754;2023-02-17T20:40:08;3.63;;;2.40;;
13374;SDS011;6756;51.354;15.754;2023-02-17T20:44:10;4.20;;;2.53;;
13374;SDS011;6756;51.354;15.754;2023-02-17T20:48:11;4.57;;;1.90;;
13374;SDS011;6756;51.354;15.754;2023-02-17T20:52:12;2.17;;;1.97;;
13374;SDS011;6756;51.354;15.754;2023-02-17T20:56:14;2.50;;;1.90;;
13374;SDS011;6756;51.354;15.754;2023-02-17T21:00:18;4.33;;;1.90;;
13374;SDS011;6756;51.354;15.754;2023-02-17T21:04:21;2.40;;;1.57;;
13374;SDS011;6756;51.354;15.754;2023-02-17T21:08:24;2.83;;;1.57;;
13374;SDS011;6756;51.354;15.754;2023-02-17T21:12:25;3.63;;;1.67;;
13374;SDS011;6756;51.354;15.754;2023-02-17T21:16:26;2.53;;;2.27;;
13374;SDS011;6756;51.354;15.754;2023-02-17T21:20:31;1.80;;;1.50;;
13374;SDS011;6756;51.354;15.754;2023-02-17T21:24:32;3.27;;;1.70;;
13374;SDS011;6756;51.354;15.754;2023-02-17T21:28:33;2.50;;;2.00;;
13374;SDS011;6756;51.354;15.754;2023-02-17T21:32:35;4.00;;;2.17;;
13374;SDS011;6756;51.354;15.754;2023-02-17T21:36:35;3.27;;;2.47;;
13374;SDS011;6756;51.354;15.754;2023-02-17T21:40:37;5.13;;;2.40;;
13374;SDS011;6756;51.354;15.754;2023-02-17T21:44:37;5.13;;;2.83;;
13374;SDS011;6756;51.354;15.754;2023-02-17T21:48:51;3.73;;;2.03;;
13374;SDS011;6756;51.354;15.754;2023-02-17T21:52:52;5.43;;;2.17;;
13374;SDS011;6756;51.354;15.754;2023-02-17T21:56:53;3.90;;;2.50;;
13374;SDS011;6756;51.354;15.754;2023-02-17T22:00:54;4.53;;;2.77;;
13374;SDS011;6756;51.354;15.754;2023-02-17T22:04:55;4.97;;;3.03;;
13374;SDS011;6756;51.354;15.754;2023-02-17T22:08:56;7.90;;;2.90;;
13374;SDS011;6756;51.354;15.754;2023-02-17T22:12:58;7.13;;;3.03;;
13374;SDS011;6756;51.354;15.754;2023-02-17T22:16:59;5.10;;;3.00;;
13374;SDS011;6756;51.354;15.754;2023-02-17T22:21:00;7.07;;;3.37;;
13374;SDS011;6756;51.354;15.754;2023-02-17T22:25:01;5.93;;;4.20;;
13374;SDS011;6756;51.354;15.754;2023-02-17T22:29:02;4.90;;;3.87;;
13374;SDS011;6756;51.354;15.754;2023-02-17T22:33:03;6.80;;;3.77;;
13374;SDS011;6756;51.354;15.754;2023-02-17T22:37:04;3.60;;;2.20;;
13374;SDS011;6756;51.354;15.754;2023-02-17T22:41:05;5.00;;;1.87;;
13374;SDS011;6756;51.354;15.754;2023-02-17T22:45:07;1.93;;;0.97;;
13374;SDS011;6756;51.354;15.754;2023-02-17T22:49:08;2.87;;;0.90;;
13374;SDS011;6756;51.354;15.754;2023-02-17T22:53:09;1.67;;;1.00;;
13374;SDS011;6756;51.354;15.754;2023-02-17T22:57:09;3.30;;;1.53;;
13374;SDS011;6756;51.354;15.754;2023-02-17T23:01:15;2.63;;;0.90;;
13374;SDS011;6756;51.354;15.754;2023-02-17T23:05:18;4.10;;;1.23;;
13374;SDS011;6756;51.354;15.754;2023-02-17T23:09:19;2.03;;;0.90;;
13374;SDS011;6756;51.354;15.754;2023-02-17T23:13:20;1.47;;;0.60;;
13374;SDS011;6756;51.354;15.754;2023-02-17T23:17:20;1.53;;;0.57;;
13374;SDS011;6756;51.354;15.754;2023-02-17T23:21:21;3.03;;;0.83;;
13374;SDS011;6756;51.354;15.754;2023-02-17T23:34:57;2.70;;;1.13;;
13374;SDS011;6756;51.354;15.754;2023-02-17T23:38:58;2.90;;;0.77;;
13374;SDS011;6756;51.354;15.754;2023-02-17T23:43:00;2.50;;;0.90;;
13374;SDS011;6756;51.354;15.754;2023-02-17T23:47:01;2.27;;;0.80;;
13374;SDS011;6756;51.354;15.754;2023-02-17T23:51:03;3.87;;;0.70;;
13374;SDS011;6756;51.354;15.754;2023-02-17T23:55:04;1.40;;;0.60;;
13374;SDS011;6756;51.354;15.754;2023-02-17T23:59:06;1.57;;;0.80;;
